Time;durP1;ratioP1;P1;durP2;ratioP2;P2;SDS_P1;SDS_P2;PMS_P1;PMS_P2;Temp;Humidity;BMP_temperature;BMP_pressure;BME280_temperature;BME280_humidity;BME280_pressure;Samples;Min_cycle;Max_cycle;Signal;HPM_P1;HPM_P2
2022/01/09 00:00:57;;;;;;;0.00;0.00;;;5.50;83.40;;;;;;4175998;28;20055;-61
2022/01/09 00:03:20;;;;;;;0.00;0.00;;;5.50;83.90;;;;;;4191140;28;20135;-61
2022/01/09 00:05:43;;;;;;;0.00;0.00;;;5.60;84.20;;;;;;4178760;28;20119;-61
2022/01/09 00:08:06;;;;;;;0.00;0.00;;;5.60;84.30;;;;;;4178446;28;20067;-64
2022/01/09 00:10:31;;;;;;;0.00;0.00;;;5.80;84.10;;;;;;4178512;28;20056;-62
2022/01/09 00:12:54;;;;;;;0.00;0.00;;;5.80;84.00;;;;;;4178684;28;20099;-61
2022/01/09 00:15:16;;;;;;;0.00;0.00;;;5.80;83.90;;;;;;4169763;28;20056;-61
2022/01/09 00:17:39;;;;;;;0.00;0.00;;;5.60;84.30;;;;;;4174248;28;20095;-60
2022/01/09 00:20:02;;;;;;;0.00;0.00;;;5.60;84.50;;;;;;4178722;28;20048;-61
2022/01/09 00:24:59;;;;;;;0.00;0.00;;;5.80;84.10;;;;;;4166555;28;20051;-61
2022/01/09 00:27:21;;;;;;;0.00;0.00;;;5.90;83.70;;;;;;4178725;28;20599;-63
2022/01/09 00:29:44;;;;;;;0.00;0.00;;;5.80;83.70;;;;;;4177947;28;20331;-61
2022/01/09 00:32:07;;;;;;;0.00;0.00;;;5.70;84.30;;;;;;4178320;28;20057;-64
2022/01/09 00:34:30;;;;;;;0.00;0.00;;;5.80;84.20;;;;;;4178059;28;20041;-62
2022/01/09 00:36:52;;;;;;;0.00;0.00;;;5.70;84.70;;;;;;4178545;28;20071;-62
2022/01/09 00:39:15;;;;;;;0.00;0.00;;;5.60;85.00;;;;;;4178707;28;20501;-60
2022/01/09 00:41:37;;;;;;;0.00;0.00;;;5.70;84.90;;;;;;4164375;28;20041;-62
2022/01/09 00:43:59;;;;;;;0.00;0.00;;;5.90;84.60;;;;;;4178447;28;20049;-62
2022/01/09 00:46:22;;;;;;;0.00;0.00;;;5.90;84.60;;;;;;4178051;28;20044;-59
2022/01/09 00:48:44;;;;;;;0.00;0.00;;;5.90;84.50;;;;;;4164973;28;20053;-61
2022/01/09 00:51:07;;;;;;;0.00;0.00;;;5.80;84.70;;;;;;4164408;28;20491;-61
2022/01/09 00:53:29;;;;;;;0.00;0.00;;;5.60;85.30;;;;;;4192474;28;20056;-61
2022/01/09 00:55:52;;;;;;;0.00;0.00;;;5.50;85.80;;;;;;4178516;28;20459;-57
2022/01/09 00:58:14;;;;;;;0.00;0.00;;;5.60;85.90;;;;;;4177914;28;20079;-61
2022/01/09 01:00:39;;;;;;;0.00;0.00;;;5.50;86.20;;;;;;4191813;28;20536;-61
2022/01/09 01:03:03;;;;;;;0.00;0.00;;;5.40;86.30;;;;;;4178045;28;20438;-60
2022/01/09 01:05:25;;;;;;;0.00;0.00;;;5.50;86.00;;;;;;4164435;28;20141;-62
2022/01/09 01:07:48;;;;;;;0.00;0.00;;;5.50;86.70;;;;;;4192075;28;20063;-60
2022/01/09 01:10:12;;;;;;;0.00;0.00;;;5.60;86.40;;;;;;4178314;28;20045;-60
2022/01/09 01:12:35;;;;;;;0.00;0.00;;;5.60;86.40;;;;;;4177647;28;20048;-60
2022/01/09 01:15:12;;;;;;;0.00;0.00;;;5.70;86.40;;;;;;4178292;28;20052;-61
2022/01/09 01:17:36;;;;;;;0.00;0.00;;;5.70;86.20;;;;;;4179182;28;20064;-62
2022/01/09 01:19:59;;;;;;;0.00;0.00;;;5.80;86.20;;;;;;4179159;28;20044;-60
2022/01/09 01:22:34;;;;;;;0.00;0.00;;;5.90;86.00;;;;;;4161945;28;20691;-61
2022/01/09 01:24:58;;;;;;;0.00;0.00;;;5.90;85.80;;;;;;4168008;28;20037;-60
2022/01/09 01:27:20;;;;;;;0.00;0.00;;;5.90;85.90;;;;;;4179177;28;20048;-61
2022/01/09 01:29:43;;;;;;;0.00;0.00;;;5.90;86.00;;;;;;4165213;28;20125;-59
2022/01/09 01:32:06;;;;;;;0.00;0.00;;;5.80;86.00;;;;;;4176795;28;20048;-60
2022/01/09 01:34:29;;;;;;;0.00;0.00;;;5.60;86.70;;;;;;4176022;28;20135;-60
2022/01/09 01:36:55;;;;;;;0.00;0.00;;;5.50;87.30;;;;;;4178082;28;20053;-57
2022/01/09 01:39:37;;;;;;;0.00;0.00;;;5.50;87.50;;;;;;4177912;28;20049;-58
2022/01/09 01:41:59;;;;;;;0.00;0.00;;;5.70;87.20;;;;;;4167229;28;20465;-58
2022/01/09 01:44:51;;;;;;;0.00;0.00;;;5.70;87.10;;;;;;4181730;28;20087;-55
2022/01/09 01:47:24;;;;;;;;;;;5.60;88.00;;;;;;4181474;28;20468;-54
2022/01/09 01:49:48;;;;;;;0.00;0.00;;;5.70;87.80;;;;;;4181065;28;19960;-57
2022/01/09 01:52:41;;;;;;;0.00;0.00;;;5.90;87.10;;;;;;4181336;28;20041;-56
2022/01/09 01:55:23;;;;;;;0.00;0.00;;;5.80;87.70;;;;;;4182033;28;20430;-53
2022/01/09 01:57:46;;;;;;;0.00;0.00;;;5.80;87.80;;;;;;4167659;28;20056;-56
2022/01/09 02:00:20;;;;;;;0.00;0.00;;;5.90;87.70;;;;;;4180635;28;20044;-56
2022/01/09 02:02:43;;;;;;;0.00;0.00;;;5.90;87.80;;;;;;4180821;28;20037;-56
2022/01/09 02:05:14;;;;;;;0.00;0.00;;;6.00;88.20;;;;;;4180596;28;20053;-58
2022/01/09 02:07:41;;;;;;;0.00;0.00;;;6.00;88.30;;;;;;4181914;28;20041;-56
2022/01/09 02:10:09;;;;;;;0.00;0.00;;;6.10;88.30;;;;;;4180667;28;20131;-56
2022/01/09 02:13:02;;;;;;;0.00;0.00;;;6.00;88.40;;;;;;4180953;28;20132;-59
2022/01/09 02:15:46;;;;;;;0.00;0.00;;;6.00;88.60;;;;;;4181616;28;20120;-61
2022/01/09 02:18:21;;;;;;;0.00;0.00;;;6.00;89.00;;;;;;4180343;28;20037;-61
2022/01/09 02:20:45;;;;;;;0.00;0.00;;;6.00;89.20;;;;;;4180802;28;20045;-60
2022/01/09 02:23:08;;;;;;;0.00;0.00;;;6.00;89.60;;;;;;4194158;28;20045;-60
2022/01/09 02:25:31;;;;;;;0.00;0.00;;;5.90;90.00;;;;;;4180451;28;20449;-59
2022/01/09 02:27:54;;;;;;;0.00;0.00;;;5.90;90.10;;;;;;4194342;28;20538;-61
2022/01/09 02:30:16;;;;;;;0.00;0.00;;;5.90;90.30;;;;;;4193564;28;20053;-60
2022/01/09 02:32:38;;;;;;;0.00;0.00;;;5.90;90.30;;;;;;4179618;28;20099;-62
2022/01/09 02:35:02;;;;;;;0.00;0.00;;;5.90;90.40;;;;;;4173107;28;20073;-60
2022/01/09 02:37:25;;;;;;;0.00;0.00;;;5.90;90.50;;;;;;4163701;28;20419;-60
2022/01/09 02:39:49;;;;;;;0.00;0.00;;;5.90;90.50;;;;;;4163568;28;20148;-61
2022/01/09 02:42:26;;;;;;;0.00;0.00;;;6.00;90.60;;;;;;4165448;28;20096;-61
2022/01/09 02:44:48;;;;;;;0.00;0.00;;;6.00;90.90;;;;;;4174789;28;20132;-61
2022/01/09 02:47:10;;;;;;;0.00;0.00;;;6.00;91.10;;;;;;4168978;28;20045;-60
2022/01/09 02:49:33;;;;;;;0.00;0.00;;;6.00;91.20;;;;;;4163240;28;20107;-60
2022/01/09 02:51:58;;;;;;;0.00;0.00;;;6.00;91.30;;;;;;4176763;28;20118;-60
2022/01/09 02:57:02;;;;;;;;;;;6.00;91.60;;;;;;4180214;28;20497;-62
2022/01/09 02:59:24;;;;;;;0.00;0.00;;;6.00;91.70;;;;;;4193654;28;19926;-58
2022/01/09 03:01:46;;;;;;;0.00;0.00;;;6.00;91.70;;;;;;4179460;28;20450;-59
2022/01/09 03:04:08;;;;;;;0.00;0.00;;;6.00;91.70;;;;;;4179853;28;20430;-60
2022/01/09 03:06:31;;;;;;;0.00;0.00;;;6.00;91.80;;;;;;4179378;28;20118;-58
2022/01/09 03:08:55;;;;;;;0.00;0.00;;;6.00;91.90;;;;;;4179893;28;20041;-60
2022/01/09 03:11:17;;;;;;;0.00;0.00;;;6.10;91.80;;;;;;4178993;28;20498;-57
2022/01/09 03:13:39;;;;;;;0.00;0.00;;;6.20;91.70;;;;;;4165006;28;20056;-60
2022/01/09 03:16:02;;;;;;;0.00;0.00;;;6.20;91.70;;;;;;4178203;28;20056;-61
2022/01/09 03:18:24;;;;;;;0.00;0.00;;;6.30;91.70;;;;;;4193199;28;20584;-60
2022/01/09 03:20:47;;;;;;;0.00;0.00;;;6.30;91.60;;;;;;4176035;28;20045;-58
2022/01/09 03:23:09;;;;;;;0.00;0.00;;;6.30;91.60;;;;;;4163216;28;20049;-60
2022/01/09 03:25:31;;;;;;;0.00;0.00;;;6.40;91.50;;;;;;4163188;28;20637;-60
2022/01/09 03:27:56;;;;;;;0.00;0.00;;;6.40;91.40;;;;;;4190589;28;20526;-61
2022/01/09 03:30:21;;;;;;;0.00;0.00;;;6.50;91.20;;;;;;4162321;28;20079;-60
2022/01/09 03:32:44;;;;;;;0.00;0.00;;;6.50;91.00;;;;;;4162844;28;20124;-60
2022/01/09 03:35:21;;;;;;;0.00;0.00;;;6.50;90.90;;;;;;4162742;28;20076;-58
2022/01/09 03:37:45;;;;;;;0.00;0.00;;;6.60;90.60;;;;;;4162964;28;20080;-60
2022/01/09 03:40:10;;;;;;;0.00;0.00;;;6.70;90.20;;;;;;4162643;28;20053;-60
2022/01/09 03:42:33;;;;;;;0.00;0.00;;;6.70;90.00;;;;;;4162216;28;20062;-60
2022/01/09 03:44:56;;;;;;;0.00;0.00;;;6.70;89.60;;;;;;4162875;28;20513;-60
2022/01/09 03:47:18;;;;;;;0.00;0.00;;;6.80;89.40;;;;;;4162785;28;20495;-59
2022/01/09 03:49:41;;;;;;;0.00;0.00;;;6.90;89.30;;;;;;4162714;28;20434;-55
2022/01/09 03:52:03;;;;;;;0.00;0.00;;;6.90;88.90;;;;;;4162188;28;20470;-55
2022/01/09 03:54:26;;;;;;;0.00;0.00;;;7.00;89.00;;;;;;4161879;28;20085;-60
2022/01/09 03:56:49;;;;;;;0.00;0.00;;;6.90;88.70;;;;;;4162404;28;20495;-55
2022/01/09 03:59:12;;;;;;;0.00;0.00;;;6.90;88.80;;;;;;4162341;28;20080;-61
2022/01/09 04:01:34;;;;;;;0.00;0.00;;;6.80;88.90;;;;;;4169596;28;20132;-60
2022/01/09 04:03:57;;;;;;;0.00;0.00;;;6.80;89.30;;;;;;4178712;28;20080;-60
2022/01/09 04:06:20;;;;;;;0.00;0.00;;;6.80;89.80;;;;;;4178299;28;20045;-62
2022/01/09 04:08:43;;;;;;;0.00;0.00;;;6.80;89.80;;;;;;4174265;28;20052;-60
2022/01/09 04:11:06;;;;;;;0.00;0.00;;;6.80;90.00;;;;;;4169195;28;20071;-60
2022/01/09 04:13:29;;;;;;;0.00;0.00;;;6.80;90.30;;;;;;4178718;28;20045;-60
2022/01/09 04:15:51;;;;;;;0.00;0.00;;;6.70;90.30;;;;;;4178537;28;20131;-60
2022/01/09 04:18:16;;;;;;;0.00;0.00;;;6.70;90.70;;;;;;4192258;28;20160;-61
2022/01/09 04:20:38;;;;;;;0.00;0.00;;;6.60;90.90;;;;;;4178592;28;20052;-60
2022/01/09 04:23:00;;;;;;;0.00;0.00;;;6.60;91.00;;;;;;4192381;28;20100;-60
2022/01/09 04:25:24;;;;;;;0.00;0.00;;;6.60;91.00;;;;;;4178678;28;20518;-60
2022/01/09 04:27:47;;;;;;;0.00;0.00;;;6.50;91.40;;;;;;4178507;28;20059;-59
2022/01/09 04:30:10;;;;;;;0.00;0.00;;;6.40;91.40;;;;;;4192349;28;20132;-59
2022/01/09 04:32:33;;;;;;;0.00;0.00;;;6.40;91.50;;;;;;4177709;28;20056;-60
2022/01/09 04:34:56;;;;;;;0.00;0.00;;;6.30;91.60;;;;;;4172050;28;20055;-60
2022/01/09 04:37:18;;;;;;;0.00;0.00;;;6.30;91.50;;;;;;4175886;28;20049;-60
2022/01/09 04:39:41;;;;;;;0.00;0.00;;;6.30;91.60;;;;;;4175674;28;20469;-59
2022/01/09 04:42:04;;;;;;;0.00;0.00;;;6.30;91.40;;;;;;4175438;28;20466;-60
2022/01/09 04:44:26;;;;;;;0.00;0.00;;;6.40;91.30;;;;;;4163489;28;20132;-61
2022/01/09 04:46:56;;;;;;;0.00;0.00;;;6.40;91.30;;;;;;4192293;28;20037;-61
2022/01/09 04:49:23;;;;;;;0.00;0.00;;;6.40;91.10;;;;;;4192292;28;20080;-60
2022/01/09 04:51:45;;;;;;;0.00;0.00;;;6.50;91.10;;;;;;4177950;28;20041;-61
2022/01/09 04:54:07;;;;;;;0.00;0.00;;;6.50;91.10;;;;;;4192170;28;20045;-59
2022/01/09 04:56:31;;;;;;;0.00;0.00;;;6.60;91.10;;;;;;4191740;28;20509;-60
2022/01/09 04:58:53;;;;;;;0.00;0.00;;;6.60;91.10;;;;;;4172466;28;20072;-60
2022/01/09 05:01:15;;;;;;;0.00;0.00;;;6.60;91.20;;;;;;4161656;28;20053;-61
2022/01/09 05:03:37;;;;;;;0.00;0.00;;;6.60;91.10;;;;;;4173618;28;20094;-62
2022/01/09 05:06:00;;;;;;;0.00;0.00;;;6.50;91.00;;;;;;4178084;28;20068;-61
2022/01/09 05:08:22;;;;;;;0.00;0.00;;;6.50;90.80;;;;;;4177571;28;20057;-61
2022/01/09 05:10:45;;;;;;;0.00;0.00;;;6.40;90.50;;;;;;4187043;28;20516;-61
2022/01/09 05:13:07;;;;;;;0.00;0.00;;;6.50;90.60;;;;;;4166604;28;20095;-61
2022/01/09 05:15:30;;;;;;;0.00;0.00;;;6.50;90.20;;;;;;4160264;28;20049;-61
2022/01/09 05:17:58;;;;;;;0.00;0.00;;;6.50;90.10;;;;;;4181304;28;20053;-60
2022/01/09 05:20:21;;;;;;;0.00;0.00;;;6.40;90.10;;;;;;4180841;28;20534;-60
2022/01/09 05:22:43;;;;;;;0.00;0.00;;;6.40;90.10;;;;;;4195395;28;20045;-61
2022/01/09 05:25:06;;;;;;;0.00;0.00;;;6.40;90.10;;;;;;4140134;28;20087;-52
2022/01/09 05:27:29;;;;;;;0.00;0.00;;;6.40;89.90;;;;;;4181192;28;20057;-60
2022/01/09 05:29:52;;;;;;;0.00;0.00;;;6.40;89.80;;;;;;4181320;28;20063;-60
2022/01/09 05:32:14;;;;;;;0.00;0.00;;;6.40;89.70;;;;;;4193550;28;20103;-58
2022/01/09 05:34:36;;;;;;;0.00;0.00;;;6.40;90.00;;;;;;4181050;28;20044;-61
2022/01/09 05:36:59;;;;;;;0.00;0.00;;;6.40;90.00;;;;;;4181327;28;20060;-60
2022/01/09 05:39:21;;;;;;;0.00;0.00;;;6.30;90.40;;;;;;4180964;28;20045;-60
2022/01/09 05:41:45;;;;;;;0.00;0.00;;;6.30;90.30;;;;;;4180692;28;20513;-52
2022/01/09 05:44:08;;;;;;;0.00;0.00;;;6.20;90.60;;;;;;4180772;28;20057;-60
2022/01/09 05:46:30;;;;;;;0.00;0.00;;;6.20;90.60;;;;;;4180525;28;20045;-53
2022/01/09 05:48:53;;;;;;;0.00;0.00;;;5.90;91.30;;;;;;4181162;28;20051;-57
2022/01/09 05:51:16;;;;;;;0.00;0.00;;;5.60;91.50;;;;;;4180514;28;20445;-55
2022/01/09 05:53:38;;;;;;;0.00;0.00;;;5.40;91.90;;;;;;4180859;28;20044;-58
2022/01/09 05:56:00;;;;;;;0.00;0.00;;;5.30;91.80;;;;;;4180869;28;20124;-58
2022/01/09 05:58:23;;;;;;;0.00;0.00;;;5.20;91.10;;;;;;4180423;28;20076;-57
2022/01/09 06:00:46;;;;;;;0.00;0.00;;;5.20;91.20;;;;;;4179531;28;20128;-61
2022/01/09 06:03:10;;;;;;;0.00;0.00;;;5.30;91.30;;;;;;4180804;28;20049;-61
2022/01/09 06:05:36;;;;;;;0.00;0.00;;;5.20;91.10;;;;;;4180479;28;20053;-58
2022/01/09 06:07:58;;;;;;;0.00;0.00;;;5.10;91.30;;;;;;4180639;28;20052;-59
2022/01/09 06:10:20;;;;;;;0.00;0.00;;;5.10;91.40;;;;;;4180396;28;20139;-59
2022/01/09 06:12:46;;;;;;;0.00;0.00;;;5.20;91.30;;;;;;4194502;28;20076;-57
2022/01/09 06:15:09;;;;;;;0.00;0.00;;;5.40;91.20;;;;;;4180621;28;20052;-57
2022/01/09 06:17:42;;;;;;;0.00;0.00;;;5.30;91.00;;;;;;4180573;28;20056;-58
2022/01/09 06:20:07;;;;;;;0.00;0.00;;;5.30;91.00;;;;;;4180233;28;20116;-60
2022/01/09 06:22:29;;;;;;;0.00;0.00;;;5.30;90.80;;;;;;4179659;28;20102;-56
2022/01/09 06:24:51;;;;;;;0.00;0.00;;;5.20;90.90;;;;;;4180316;28;20469;-58
2022/01/09 06:27:14;;;;;;;0.00;0.00;;;5.20;91.00;;;;;;4179175;28;20126;-56
2022/01/09 06:29:36;;;;;;;0.00;0.00;;;5.10;91.10;;;;;;4180134;28;20438;-59
2022/01/09 06:31:59;;;;;;;0.00;0.00;;;5.10;91.20;;;;;;4165762;28;20054;-57
2022/01/09 06:34:21;;;;;;;0.00;0.00;;;5.10;91.20;;;;;;4179797;28;20057;-58
2022/01/09 06:36:43;;;;;;;0.00;0.00;;;5.00;91.20;;;;;;4179778;28;20037;-55
2022/01/09 06:39:07;;;;;;;0.00;0.00;;;5.00;91.20;;;;;;4166556;28;20047;-61
2022/01/09 06:41:31;;;;;;;0.00;0.00;;;5.00;91.40;;;;;;4180038;28;20562;-57
2022/01/09 06:43:54;;;;;;;0.00;0.00;;;5.00;91.40;;;;;;4180353;28;20045;-61
2022/01/09 06:46:16;;;;;;;0.00;0.00;;;4.90;91.60;;;;;;4179821;28;20048;-60
2022/01/09 06:48:38;;;;;;;0.00;0.00;;;5.00;91.50;;;;;;4180189;28;20045;-58
2022/01/09 06:51:01;;;;;;;0.00;0.00;;;5.00;91.40;;;;;;4179280;28;20053;-59
2022/01/09 06:53:23;;;;;;;0.00;0.00;;;5.00;91.50;;;;;;4180002;28;20053;-57
2022/01/09 06:55:46;;;;;;;0.00;0.00;;;5.00;91.40;;;;;;4179920;28;20150;-61
2022/01/09 06:58:08;;;;;;;0.00;0.00;;;4.90;91.40;;;;;;4179899;28;20048;-62
2022/01/09 07:00:32;;;;;;;0.00;0.00;;;5.00;91.50;;;;;;4178369;28;20100;-61
2022/01/09 07:02:55;;;;;;;0.00;0.00;;;5.00;91.50;;;;;;4180016;28;20410;-60
2022/01/09 07:05:17;;;;;;;0.00;0.00;;;5.10;91.50;;;;;;4179841;28;20053;-57
2022/01/09 07:07:40;;;;;;;0.00;0.00;;;5.10;91.50;;;;;;4179852;28;20076;-55
2022/01/09 07:10:03;;;;;;;0.00;0.00;;;5.00;91.50;;;;;;4179487;28;20049;-58
2022/01/09 07:12:26;;;;;;;0.00;0.00;;;4.90;91.60;;;;;;4178617;28;20083;-59
2022/01/09 07:14:48;;;;;;;0.00;0.00;;;4.90;91.70;;;;;;4179630;28;20052;-55
2022/01/09 07:17:11;;;;;;;0.00;0.00;;;5.00;91.70;;;;;;4193547;28;20103;-54
2022/01/09 07:19:33;;;;;;;0.00;0.00;;;5.00;91.80;;;;;;4179630;28;20091;-56
2022/01/09 07:21:56;;;;;;;0.00;0.00;;;5.10;91.70;;;;;;4179298;28;20063;-57
2022/01/09 07:24:18;;;;;;;0.00;0.00;;;5.00;91.80;;;;;;4179144;28;20123;-55
2022/01/09 07:26:40;;;;;;;0.00;0.00;;;5.00;91.70;;;;;;4179689;28;20498;-54
2022/01/09 07:29:03;;;;;;;0.00;0.00;;;5.00;91.70;;;;;;4179564;28;20136;-57
2022/01/09 07:31:25;;;;;;;0.00;0.00;;;5.00;91.70;;;;;;4177968;28;20124;-55
2022/01/09 07:33:47;;;;;;;0.00;0.00;;;5.10;91.50;;;;;;4193455;28;20437;-57
2022/01/09 07:36:10;;;;;;;0.00;0.00;;;5.10;91.50;;;;;;4179329;28;20048;-57
2022/01/09 07:38:33;;;;;;;0.00;0.00;;;5.10;91.50;;;;;;4178633;28;20124;-57
2022/01/09 07:40:57;;;;;;;0.00;0.00;;;5.10;91.50;;;;;;4179127;28;20052;-57
2022/01/09 07:43:20;;;;;;;0.00;0.00;;;5.10;91.40;;;;;;4178923;28;20120;-61
2022/01/09 07:45:44;;;;;;;0.00;0.00;;;5.10;91.10;;;;;;4179026;28;20498;-60
2022/01/09 07:48:06;;;;;;;0.00;0.00;;;5.20;91.10;;;;;;4179014;28;20079;-60
2022/01/09 07:50:29;;;;;;;0.00;0.00;;;5.20;91.10;;;;;;4175424;28;20099;-59
2022/01/09 07:52:51;;;;;;;0.00;0.00;;;5.30;90.90;;;;;;4185661;28;20526;-57
2022/01/09 07:55:14;;;;;;;0.00;0.00;;;5.30;90.90;;;;;;4185401;28;20048;-56
2022/01/09 07:57:37;;;;;;;0.00;0.00;;;5.30;90.70;;;;;;4192695;28;20098;-61
2022/01/09 08:00:03;;;;;;;0.00;0.00;;;5.40;90.70;;;;;;4165575;28;20141;-61
2022/01/09 08:02:34;;;;;;;0.00;0.00;;;5.20;90.20;;;;;;4161596;28;20127;-57
2022/01/09 08:04:57;;;;;;;0.00;0.00;;;5.30;90.00;;;;;;4176221;28;20090;-58
2022/01/09 08:07:20;;;;;;;0.00;0.00;;;5.30;89.40;;;;;;4179344;28;20052;-59
2022/01/09 08:09:45;;;;;;;0.00;0.00;;;5.40;88.70;;;;;;4178893;28;20505;-58
2022/01/09 08:12:10;;;;;;;0.00;0.00;;;5.40;88.20;;;;;;4192326;28;20101;-59
2022/01/09 08:14:32;;;;;;;0.00;0.00;;;5.50;88.10;;;;;;4178338;28;20044;-57
2022/01/09 08:16:55;;;;;;;0.00;0.00;;;5.60;87.60;;;;;;4192542;28;20044;-58
2022/01/09 08:19:17;;;;;;;0.00;0.00;;;5.60;86.60;;;;;;4192441;28;20071;-58
2022/01/09 08:21:40;;;;;;;0.00;0.00;;;5.60;86.50;;;;;;4192242;28;20433;-58
2022/01/09 08:24:02;;;;;;;0.00;0.00;;;5.70;86.40;;;;;;4191918;28;20572;-58
2022/01/09 08:26:24;;;;;;;0.00;0.00;;;5.70;85.90;;;;;;4175683;28;20103;-58
2022/01/09 08:28:47;;;;;;;0.00;0.00;;;5.80;85.30;;;;;;4175928;28;20773;-58
2022/01/09 08:31:14;;;;;;;0.00;0.00;;;5.90;85.20;;;;;;4178468;28;20102;-56
2022/01/09 08:33:36;;;;;;;0.00;0.00;;;6.00;84.60;;;;;;4178296;28;20406;-57
2022/01/09 08:35:59;;;;;;;0.00;0.00;;;6.00;84.50;;;;;;4164591;28;20049;-58
2022/01/09 08:38:21;;;;;;;0.00;0.00;;;6.00;84.50;;;;;;4178062;28;20076;-57
2022/01/09 08:40:44;;;;;;;0.00;0.00;;;6.00;84.60;;;;;;4178280;28;20064;-58
2022/01/09 08:43:06;;;;;;;0.00;0.00;;;6.00;84.20;;;;;;4178461;28;20076;-58
2022/01/09 08:45:28;;;;;;;0.00;0.00;;;6.00;83.50;;;;;;4178337;28;20057;-58
2022/01/09 08:47:51;;;;;;;0.00;0.00;;;6.10;83.20;;;;;;4192133;28;20044;-57
2022/01/09 08:50:17;;;;;;;0.00;0.00;;;6.30;82.50;;;;;;4177367;28;20049;-58
2022/01/09 08:52:40;;;;;;;0.00;0.00;;;6.50;81.90;;;;;;4178226;28;20053;-56
2022/01/09 08:55:04;;;;;;;0.00;0.00;;;6.50;81.10;;;;;;4178165;28;20045;-59
2022/01/09 08:57:26;;;;;;;0.00;0.00;;;6.50;81.10;;;;;;4178243;28;20045;-58
2022/01/09 08:59:49;;;;;;;0.00;0.00;;;6.40;81.00;;;;;;4191582;28;20044;-57
2022/01/09 09:02:11;;;;;;;0.00;0.00;;;6.70;81.10;;;;;;4176636;28;20076;-59
2022/01/09 09:04:33;;;;;;;0.00;0.00;;;7.40;80.00;;;;;;4178074;28;20490;-59
2022/01/09 09:07:01;;;;;;;0.00;0.00;;;7.60;78.50;;;;;;4185054;28;20053;-59
2022/01/09 09:09:24;;;;;;;0.00;0.00;;;7.60;78.60;;;;;;4161548;28;20416;-59
2022/01/09 09:11:48;;;;;;;0.00;0.00;;;7.50;78.50;;;;;;4161145;28;20057;-58
2022/01/09 09:14:13;;;;;;;0.00;0.00;;;7.40;78.60;;;;;;4161490;28;20081;-59
2022/01/09 09:16:35;;;;;;;0.00;0.00;;;7.20;78.80;;;;;;4176701;28;20056;-58
2022/01/09 09:18:59;;;;;;;0.00;0.00;;;7.10;79.10;;;;;;4176689;28;20123;-58
2022/01/09 09:21:21;;;;;;;0.00;0.00;;;7.00;79.60;;;;;;4149378;28;20053;-59
2022/01/09 09:23:44;;;;;;;0.00;0.00;;;7.00;80.20;;;;;;4176595;28;20542;-59
2022/01/09 09:26:06;;;;;;;0.00;0.00;;;7.10;79.80;;;;;;4177942;28;20517;-59
2022/01/09 09:28:28;;;;;;;0.00;0.00;;;7.00;79.90;;;;;;4189530;28;20053;-60
2022/01/09 09:30:56;;;;;;;0.00;0.00;;;6.90;79.60;;;;;;4176850;28;20583;-59
2022/01/09 09:33:19;;;;;;;0.00;0.00;;;7.00;80.00;;;;;;4177707;28;20096;-61
2022/01/09 09:35:42;;;;;;;0.00;0.00;;;6.90;80.10;;;;;;4177527;28;20090;-58
2022/01/09 09:38:05;;;;;;;0.00;0.00;;;6.90;79.80;;;;;;4177807;28;20076;-58
2022/01/09 09:40:27;;;;;;;0.00;0.00;;;6.80;80.30;;;;;;4163362;28;20046;-59
2022/01/09 09:42:50;;;;;;;0.00;0.00;;;6.90;80.80;;;;;;4191779;28;20046;-59
2022/01/09 09:45:13;;;;;;;0.00;0.00;;;7.00;80.80;;;;;;4177987;28;20037;-59
2022/01/09 09:47:38;;;;;;;0.00;0.00;;;7.10;80.50;;;;;;4177913;28;20045;-59
2022/01/09 09:50:01;;;;;;;0.00;0.00;;;7.10;80.50;;;;;;4177937;28;20119;-59
2022/01/09 09:52:25;;;;;;;0.00;0.00;;;6.90;80.20;;;;;;4176917;28;20052;-59
2022/01/09 09:54:50;;;;;;;0.00;0.00;;;6.80;80.20;;;;;;4177693;28;20064;-58
2022/01/09 09:57:12;;;;;;;0.00;0.00;;;6.80;80.50;;;;;;4177894;28;20080;-60
2022/01/09 09:59:37;;;;;;;0.00;0.00;;;6.80;81.30;;;;;;4163418;28;20129;-58
2022/01/09 10:02:00;;;;;;;0.00;0.00;;;6.80;80.70;;;;;;4175374;28;20059;-60
2022/01/09 10:04:22;;;;;;;0.00;0.00;;;6.60;81.40;;;;;;4176093;28;20129;-59
2022/01/09 10:06:48;;;;;;;0.00;0.00;;;6.60;81.90;;;;;;4152490;28;20041;-59
2022/01/09 10:09:13;;;;;;;0.00;0.00;;;6.60;82.30;;;;;;4164219;28;20526;-60
2022/01/09 10:11:45;;;;;;;0.00;0.00;;;6.40;82.80;;;;;;4152104;28;20064;-59
2022/01/09 10:14:20;;;;;;;0.00;0.00;;;6.40;83.80;;;;;;4177522;28;20048;-60
2022/01/09 10:17:13;;;;;;;0.00;0.00;;;6.50;83.80;;;;;;4149809;28;20614;-61
2022/01/09 10:19:54;;;;;;;0.00;0.00;;;6.50;84.00;;;;;;4166129;28;20053;-60
2022/01/09 10:22:33;;;;;;;0.00;0.00;;;6.40;84.70;;;;;;4163297;28;20050;-59
2022/01/09 10:24:57;;;;;;;0.00;0.00;;;6.50;84.60;;;;;;4171821;28;20064;-59
2022/01/09 10:27:32;;;;;;;0.00;0.00;;;6.60;84.30;;;;;;4170630;28;20106;-60
2022/01/09 10:29:55;;;;;;;0.00;0.00;;;6.70;84.60;;;;;;4163196;28;20124;-59
2022/01/09 10:32:18;;;;;;;0.00;0.00;;;6.80;84.30;;;;;;4172101;28;20057;-60
2022/01/09 10:34:40;;;;;;;0.00;0.00;;;7.00;84.10;;;;;;4163999;28;20045;-60
2022/01/09 10:37:03;;;;;;;0.00;0.00;;;6.90;83.30;;;;;;4163842;28;20407;-60
2022/01/09 10:39:25;;;;;;;0.00;0.00;;;6.90;84.00;;;;;;4177598;28;20410;-59
2022/01/09 10:41:58;;;;;;;0.00;0.00;;;7.30;84.00;;;;;;4163374;28;20514;-60
2022/01/09 10:44:22;;;;;;;0.00;0.00;;;8.30;83.30;;;;;;4163205;28;20041;-59
2022/01/09 10:47:02;;;;;;;0.00;0.00;;;9.60;80.40;;;;;;4177547;28;20041;-56
2022/01/09 10:49:37;;;;;;;0.00;0.00;;;10.70;76.80;;;;;;4163466;28;20097;-57
2022/01/09 10:52:38;;;;;;;0.00;0.00;;;11.30;75.10;;;;;;4167481;28;20052;-58
2022/01/09 10:55:06;;;;;;;0.00;0.00;;;11.40;73.40;;;;;;4132040;28;20745;-57
2022/01/09 10:57:31;;;;;;;0.00;0.00;;;11.10;72.30;;;;;;4132170;28;20042;-59
2022/01/09 11:00:06;;;;;;;0.00;0.00;;;10.30;71.60;;;;;;4118132;28;20137;-59
2022/01/09 11:02:28;;;;;;;0.00;0.00;;;9.50;73.00;;;;;;4129202;28;20085;-59
2022/01/09 11:04:51;;;;;;;0.00;0.00;;;9.00;74.30;;;;;;4116212;28;20145;-60
2022/01/09 11:07:14;;;;;;;0.00;0.00;;;8.60;75.60;;;;;;4129745;28;20415;-58
2022/01/09 11:09:39;;;;;;;0.00;0.00;;;8.50;76.10;;;;;;4129627;28;20078;-59
2022/01/09 11:12:07;;;;;;;0.00;0.00;;;8.40;76.70;;;;;;4115862;28;20412;-59
2022/01/09 11:14:35;;;;;;;0.00;0.00;;;8.10;77.80;;;;;;4129149;28;20057;-59
2022/01/09 11:17:02;;;;;;;0.00;0.00;;;7.80;78.10;;;;;;4114752;28;20181;-60
2022/01/09 11:19:25;;;;;;;0.00;0.00;;;7.60;78.90;;;;;;4127404;28;20153;-59
2022/01/09 11:21:52;;;;;;;0.00;0.00;;;7.40;79.50;;;;;;4126894;28;20073;-59
2022/01/09 11:24:34;;;;;;;0.00;0.00;;;7.30;80.40;;;;;;4099851;28;20059;-59
2022/01/09 11:27:07;;;;;;;0.00;0.00;;;7.10;81.10;;;;;;4113795;28;20069;-59
2022/01/09 11:29:55;;;;;;;0.00;0.00;;;7.00;82.20;;;;;;4128241;28;20145;-60
2022/01/09 11:32:36;;;;;;;0.00;0.00;;;6.70;83.10;;;;;;4158634;28;20114;-60
2022/01/09 11:35:09;;;;;;;0.00;0.00;;;6.70;84.20;;;;;;4150942;28;20057;-59
2022/01/09 11:37:44;;;;;;;0.00;0.00;;;7.00;84.70;;;;;;4174538;28;20041;-59
2022/01/09 11:40:33;;;;;;;0.00;0.00;;;8.10;83.90;;;;;;4174398;28;20057;-60
2022/01/09 11:43:00;;;;;;;0.00;0.00;;;9.10;81.20;;;;;;4149951;28;20079;-60
2022/01/09 11:45:59;;;;;;;0.00;0.00;;;9.40;80.50;;;;;;4160427;28;20052;-60
2022/01/09 11:48:42;;;;;;;0.00;0.00;;;9.20;79.80;;;;;;4142674;28;20072;-60
2022/01/09 11:51:05;;;;;;;0.00;0.00;;;9.10;79.90;;;;;;4150091;28;20080;-60
2022/01/09 11:53:27;;;;;;;0.00;0.00;;;8.80;79.00;;;;;;4135089;28;20278;-59
2022/01/09 11:55:50;;;;;;;0.00;0.00;;;8.80;79.50;;;;;;4156488;28;20053;-59
2022/01/09 11:58:12;;;;;;;0.00;0.00;;;8.60;79.50;;;;;;4145634;28;20084;-60
2022/01/09 12:00:40;;;;;;;0.00;0.00;;;8.60;79.40;;;;;;4162249;28;20380;-60
2022/01/09 12:03:26;;;;;;;0.00;0.00;;;8.60;79.50;;;;;;4161978;28;20046;-60
2022/01/09 12:06:12;;;;;;;0.00;0.00;;;8.50;80.00;;;;;;4161679;28;20048;-59
2022/01/09 12:08:53;;;;;;;0.00;0.00;;;8.40;79.80;;;;;;4161317;28;20128;-61
2022/01/09 12:11:15;;;;;;;0.00;0.00;;;8.50;79.70;;;;;;4161369;28;20053;-60
2022/01/09 12:13:42;;;;;;;0.00;0.00;;;8.40;79.50;;;;;;4161669;28;20060;-60
2022/01/09 12:16:07;;;;;;;0.00;0.00;;;7.90;79.40;;;;;;4161509;28;20041;-60
2022/01/09 12:18:58;;;;;;;0.00;0.00;;;7.70;80.40;;;;;;4161212;28;20049;-60
2022/01/09 12:21:38;;;;;;;0.00;0.00;;;7.70;80.30;;;;;;4112464;28;20074;-62
2022/01/09 12:24:35;;;;;;;0.00;0.00;;;7.70;80.50;;;;;;4094029;28;20059;-60
2022/01/09 12:26:58;;;;;;;0.00;0.00;;;7.60;80.80;;;;;;4055981;29;20052;-59
2022/01/09 12:29:44;;;;;;;0.00;0.00;;;7.60;80.60;;;;;;4081005;29;20549;-60
2022/01/09 12:32:38;;;;;;;0.00;0.00;;;7.30;81.10;;;;;;4079861;29;20075;-60
2022/01/09 12:35:20;;;;;;;0.00;0.00;;;7.20;81.60;;;;;;4096355;28;20134;-60
2022/01/09 12:37:52;;;;;;;0.00;0.00;;;7.10;81.70;;;;;;4096675;28;20086;-59
2022/01/09 12:40:20;;;;;;;0.00;0.00;;;7.10;82.10;;;;;;4096640;28;20091;-60
2022/01/09 12:42:51;;;;;;;0.00;0.00;;;6.80;82.50;;;;;;4110030;28;20144;-59
2022/01/09 12:45:28;;;;;;;0.00;0.00;;;6.90;83.30;;;;;;4110117;28;20050;-59
2022/01/09 12:47:50;;;;;;;0.00;0.00;;;7.00;83.10;;;;;;4110089;28;20050;-60
2022/01/09 12:50:14;;;;;;;0.00;0.00;;;6.80;83.50;;;;;;4096322;28;20541;-61
2022/01/09 12:52:36;;;;;;;0.00;0.00;;;6.80;84.10;;;;;;4096312;28;20466;-60
2022/01/09 12:55:06;;;;;;;0.00;0.00;;;6.90;83.90;;;;;;4096705;28;20051;-59